Time;durP1;ratioP1;P1;durP2;ratioP2;P2;SDS_P1;SDS_P2;PMS_P1;PMS_P2;Temp;Humidity;BMP_temperature;BMP_pressure;BME280_temperature;BME280_humidity;BME280_pressure;Samples;Min_cycle;Max_cycle;Signal;HPM_P1;HPM_P2
2023/03/01 00:01:30;;;;;;;18.93;9.20;;;-1.00;99.90;;;;;;5057101;28;20209;-77
2023/03/01 00:03:58;;;;;;;16.43;8.37;;;-1.00;99.90;;;;;;5030700;28;20236;-77
2023/03/01 00:06:26;;;;;;;19.20;8.93;;;-1.00;99.90;;;;;;5037523;28;20235;-78
2023/03/01 00:08:54;;;;;;;18.03;8.40;;;-1.00;99.90;;;;;;5055651;28;20337;-77
2023/03/01 00:11:24;;;;;;;19.13;9.20;;;-0.90;99.90;;;;;;5057436;28;20209;-77
2023/03/01 00:13:53;;;;;;;22.77;9.27;;;-0.90;99.90;;;;;;5034091;28;20228;-77
2023/03/01 00:16:22;;;;;;;21.33;9.60;;;-0.90;99.90;;;;;;5046771;28;20227;-78
2023/03/01 00:18:50;;;;;;;17.63;9.13;;;-0.90;99.90;;;;;;5061803;28;20208;-78
2023/03/01 00:21:17;;;;;;;15.77;8.50;;;-1.00;99.90;;;;;;5037465;28;20216;-78
2023/03/01 00:23:44;;;;;;;20.23;8.93;;;-0.90;99.90;;;;;;5057292;28;20232;-77
2023/03/01 00:26:14;;;;;;;17.23;8.73;;;-0.90;99.90;;;;;;5040797;28;20216;-78
2023/03/01 00:28:42;;;;;;;16.07;8.53;;;-0.80;99.90;;;;;;5032292;28;20208;-77
2023/03/01 00:31:12;;;;;;;22.07;8.43;;;-0.80;99.90;;;;;;5040187;28;20236;-78
2023/03/01 00:33:39;;;;;;;18.77;9.57;;;-0.80;99.90;;;;;;5057116;28;20232;-77
2023/03/01 00:36:07;;;;;;;18.60;8.90;;;-0.80;99.90;;;;;;5058881;28;20629;-77
2023/03/01 00:38:36;;;;;;;19.93;8.43;;;-0.80;99.90;;;;;;5037245;28;20402;-77
2023/03/01 00:41:07;;;;;;;21.17;8.93;;;-0.80;99.90;;;;;;5041157;28;20813;-78
2023/03/01 00:43:36;;;;;;;21.90;9.07;;;-0.80;99.90;;;;;;5057857;28;20228;-76
2023/03/01 00:46:04;;;;;;;22.43;8.57;;;-0.80;99.90;;;;;;5058238;28;20334;-76
2023/03/01 00:48:31;;;;;;;19.23;8.70;;;-0.80;99.90;;;;;;5058140;28;20722;-76
2023/03/01 00:50:58;;;;;;;20.93;9.03;;;0.60;99.90;;;;;;5059092;28;20598;-76
2023/03/01 00:53:25;;;;;;;18.90;8.97;;;-0.80;99.90;;;;;;5038594;28;20235;-76
2023/03/01 00:55:52;;;;;;;18.07;8.20;;;-0.80;99.90;;;;;;5037744;28;20303;-77
2023/03/01 00:58:18;;;;;;;17.63;8.93;;;-0.80;99.90;;;;;;5042707;28;20362;-76
2023/03/01 01:00:47;;;;;;;18.17;8.50;;;-0.80;99.90;;;;;;5030156;28;20353;-75
2023/03/01 01:03:15;;;;;;;19.73;9.50;;;-0.90;99.90;;;;;;5035671;28;20585;-76
2023/03/01 01:05:42;;;;;;;20.03;9.20;;;-0.90;99.90;;;;;;5035377;28;20220;-76
2023/03/01 01:08:09;;;;;;;22.87;9.13;;;-0.90;99.90;;;;;;5034140;28;20239;-76
2023/03/01 01:10:36;;;;;;;17.97;8.70;;;-0.90;99.90;;;;;;5036899;28;20213;-76
2023/03/01 01:13:03;;;;;;;18.23;8.43;;;-1.00;99.90;;;;;;5035299;28;20658;-76
2023/03/01 01:15:34;;;;;;;20.93;9.23;;;-1.00;99.90;;;;;;5053816;28;20212;-75
2023/03/01 01:18:04;;;;;;;18.47;9.20;;;-1.00;99.90;;;;;;5055329;28;20225;-75
2023/03/01 01:20:31;;;;;;;23.47;9.33;;;-1.00;99.90;;;;;;5053210;28;20956;-76
2023/03/01 01:22:58;;;;;;;22.27;9.13;;;-1.00;99.90;;;;;;5037675;28;20223;-76
2023/03/01 01:25:25;;;;;;;20.43;9.90;;;-1.00;99.90;;;;;;5041436;28;20228;-75
2023/03/01 01:27:52;;;;;;;20.70;9.57;;;-1.10;99.90;;;;;;5038774;28;20228;-74
2023/03/01 01:30:19;;;;;;;18.00;9.13;;;-1.10;99.90;;;;;;5030530;28;20219;-75
2023/03/01 01:32:46;;;;;;;17.13;8.17;;;-1.10;99.90;;;;;;5057940;28;20212;-75
2023/03/01 01:35:14;;;;;;;21.10;9.43;;;-1.10;99.90;;;;;;5056047;28;20209;-75
2023/03/01 01:37:41;;;;;;;15.97;8.90;;;-1.10;99.90;;;;;;5043966;28;20243;-76
2023/03/01 01:40:11;;;;;;;24.60;10.37;;;-1.80;99.90;;;;;;5031181;28;20220;-76
2023/03/01 01:42:38;;;;;;;19.50;10.00;;;-1.10;99.90;;;;;;5033839;28;20922;-76
2023/03/01 01:45:36;;;;;;;20.80;10.40;;;-1.20;99.90;;;;;;5057506;28;20311;-76
2023/03/01 01:48:10;;;;;;;18.73;9.40;;;-1.20;99.90;;;;;;4986720;28;20696;-76
2023/03/01 01:50:41;;;;;;;15.77;9.33;;;-1.20;99.90;;;;;;5044934;28;20609;-76
2023/03/01 01:53:12;;;;;;;20.00;9.00;;;-1.20;99.90;;;;;;5060659;28;20224;-76
2023/03/01 01:55:43;;;;;;;19.77;9.03;;;-1.20;99.90;;;;;;5058426;28;20299;-76
2023/03/01 01:58:14;;;;;;;20.17;9.70;;;-1.20;99.90;;;;;;5048074;28;20772;-76
2023/03/01 02:00:41;;;;;;;19.50;9.53;;;-1.20;99.90;;;;;;5035820;28;20298;-76
2023/03/01 02:03:13;;;;;;;18.73;9.33;;;-1.20;99.90;;;;;;5054412;28;20228;-76
2023/03/01 02:05:47;;;;;;;25.20;10.90;;;-1.20;99.90;;;;;;5038491;28;20247;-76
2023/03/01 02:08:17;;;;;;;16.47;8.67;;;-1.20;99.90;;;;;;5053521;28;20209;-76
2023/03/01 02:10:46;;;;;;;18.27;9.13;;;-1.30;99.90;;;;;;5047132;28;20209;-76
2023/03/01 02:13:13;;;;;;;18.20;9.20;;;-1.30;99.90;;;;;;5029483;28;20224;-76
2023/03/01 02:15:43;;;;;;;21.77;8.77;;;-0.20;99.90;;;;;;5054210;28;20215;-76
2023/03/01 02:18:12;;;;;;;16.47;8.80;;;-1.40;99.90;;;;;;5038035;28;20238;-76
2023/03/01 02:20:46;;;;;;;17.77;9.30;;;-1.40;99.90;;;;;;5029844;28;20262;-75
2023/03/01 02:23:13;;;;;;;18.67;8.90;;;-1.50;99.90;;;;;;5037190;28;20236;-76
2023/03/01 02:25:50;;;;;;;22.13;10.13;;;-1.50;99.90;;;;;;5055798;28;20207;-76
2023/03/01 02:32:07;;;;;;;20.40;10.20;;;-1.50;99.90;;;;;;5053635;28;20242;-76
2023/03/01 02:34:34;;;;;;;25.23;9.53;;;-1.60;99.90;;;;;;5036832;28;20657;-76
2023/03/01 02:37:05;;;;;;;26.27;10.77;;;-1.60;99.90;;;;;;5037066;28;20301;-77
2023/03/01 02:39:35;;;;;;;23.30;9.87;;;-1.50;99.90;;;;;;5038341;28;20217;-77
2023/03/01 02:42:03;;;;;;;24.37;10.37;;;-1.50;99.90;;;;;;5038382;28;20709;-77
2023/03/01 02:44:30;;;;;;;20.70;9.73;;;-1.50;99.90;;;;;;5049634;28;20251;-77
2023/03/01 02:47:01;;;;;;;21.87;11.00;;;-1.50;99.90;;;;;;5054278;28;20265;-77
2023/03/01 02:49:34;;;;;;;23.87;9.77;;;-1.60;99.90;;;;;;5037452;28;20212;-77
2023/03/01 02:52:30;;;;;;;21.43;10.63;;;-1.60;99.90;;;;;;5039997;28;21057;-77
2023/03/01 02:55:02;;;;;;;21.60;10.47;;;-1.70;99.90;;;;;;5037634;28;20238;-76
2023/03/01 02:57:30;;;;;;;23.43;10.97;;;-1.70;99.90;;;;;;5037017;28;20264;-77
2023/03/01 03:00:00;;;;;;;24.23;10.60;;;-1.70;99.90;;;;;;5058185;28;20212;-77
2023/03/01 03:02:36;;;;;;;22.33;10.57;;;-1.70;99.90;;;;;;5037107;28;20296;-77
2023/03/01 03:05:11;;;;;;;23.60;10.93;;;-1.70;99.90;;;;;;5039272;28;21633;-77
2023/03/01 03:07:42;;;;;;;25.17;11.33;;;-0.60;99.90;;;;;;5034458;28;20207;-77
2023/03/01 03:10:12;;;;;;;24.13;10.83;;;-1.80;99.90;;;;;;5032080;28;20221;-77
2023/03/01 03:12:39;;;;;;;26.53;11.70;;;-1.70;99.90;;;;;;5048190;28;20237;-78
2023/03/01 03:15:09;;;;;;;22.63;11.30;;;-1.70;99.90;;;;;;5056472;28;20887;-77
2023/03/01 03:17:37;;;;;;;24.37;10.63;;;-1.70;99.90;;;;;;5034558;28;20308;-77
2023/03/01 03:20:05;;;;;;;22.40;10.90;;;-1.70;99.90;;;;;;5037853;28;21249;-78
2023/03/01 03:22:34;;;;;;;25.40;11.10;;;-1.70;99.90;;;;;;5039085;28;20209;-78
2023/03/01 03:25:01;;;;;;;25.00;10.93;;;-1.70;99.90;;;;;;5056714;28;20334;-78
2023/03/01 03:27:28;;;;;;;26.23;11.03;;;-1.80;99.90;;;;;;5041097;28;20319;-78
2023/03/01 03:29:55;;;;;;;21.00;11.03;;;-2.00;99.90;;;;;;5054165;28;20204;-78
2023/03/01 03:32:22;;;;;;;21.60;10.60;;;-1.70;99.90;;;;;;5056566;28;20216;-78
2023/03/01 03:34:49;;;;;;;23.40;11.33;;;-1.70;99.90;;;;;;5040630;28;20484;-78
2023/03/01 03:39:59;;;;;;;20.57;10.80;;;-2.00;99.90;;;;;;5053774;28;20515;-78
2023/03/01 03:42:26;;;;;;;25.90;11.40;;;-0.70;99.90;;;;;;5041601;28;20227;-78
2023/03/01 03:44:53;;;;;;;22.23;10.40;;;-1.80;99.90;;;;;;5070522;23;20256;-77
2023/03/01 03:47:19;;;;;;;23.47;10.50;;;-1.80;99.90;;;;;;5041182;28;20217;-76
2023/03/01 03:49:46;;;;;;;20.80;9.07;;;-1.80;99.90;;;;;;5040271;28;20263;-76
2023/03/01 03:52:14;;;;;;;20.67;9.97;;;-1.80;99.90;;;;;;5039914;28;20463;-77
2023/03/01 03:54:41;;;;;;;20.97;10.43;;;-1.80;99.90;;;;;;5041592;28;20225;-76
2023/03/01 03:57:09;;;;;;;19.20;9.80;;;-1.80;99.90;;;;;;5043431;28;20212;-76
2023/03/01 03:59:36;;;;;;;21.00;10.63;;;-1.80;99.90;;;;;;5062643;28;20209;-78
2023/03/01 04:02:05;;;;;;;20.43;10.83;;;-1.80;99.90;;;;;;5051234;28;20267;-75
2023/03/01 04:04:33;;;;;;;22.80;10.87;;;-1.80;99.90;;;;;;5038410;28;20236;-75
2023/03/01 04:07:00;;;;;;;24.00;10.33;;;-1.80;99.90;;;;;;5037919;28;20627;-77
2023/03/01 04:09:26;;;;;;;18.70;9.40;;;-1.90;99.90;;;;;;5040683;28;20259;-76
2023/03/01 04:11:53;;;;;;;23.57;11.00;;;-1.80;99.90;;;;;;5037330;28;20220;-77
2023/03/01 04:17:05;;;;;;;19.70;10.23;;;-1.80;99.90;;;;;;5361650;22;20234;-77
2023/03/01 04:19:35;;;;;;;22.40;10.60;;;-1.80;99.90;;;;;;5021112;28;20293;-76
2023/03/01 04:22:07;;;;;;;23.80;11.03;;;-1.80;99.90;;;;;;5020465;28;20538;-77
2023/03/01 04:24:34;;;;;;;19.50;10.40;;;-1.80;99.90;;;;;;5021549;28;20237;-75
2023/03/01 04:27:01;;;;;;;23.30;10.67;;;-1.80;99.90;;;;;;5020006;28;20216;-74
2023/03/01 04:29:27;;;;;;;21.07;10.67;;;-2.20;99.90;;;;;;5002606;28;20733;-74
2023/03/01 04:31:54;;;;;;;23.37;12.07;;;-1.80;99.90;;;;;;5068890;23;20864;-77
2023/03/01 04:34:22;;;;;;;24.97;11.07;;;-1.80;99.90;;;;;;5055444;28;20285;-77
2023/03/01 04:36:49;;;;;;;28.47;12.07;;;-1.90;99.90;;;;;;5060060;28;20212;-77
2023/03/01 04:39:16;;;;;;;23.83;11.83;;;-1.90;99.90;;;;;;5042182;28;20229;-77
2023/03/01 04:41:43;;;;;;;23.33;11.13;;;-1.90;99.90;;;;;;5033247;28;20263;-77
2023/03/01 04:44:11;;;;;;;23.17;10.43;;;-1.90;99.90;;;;;;5043178;28;20332;-77
2023/03/01 04:46:38;;;;;;;24.00;11.20;;;-1.90;99.90;;;;;;5031278;28;20205;-77
2023/03/01 04:49:05;;;;;;;22.10;11.00;;;-1.90;99.90;;;;;;5031655;28;20205;-77
2023/03/01 04:51:33;;;;;;;23.30;11.47;;;-1.90;99.90;;;;;;5029670;28;20318;-77
2023/03/01 04:54:01;;;;;;;26.27;11.27;;;-1.90;99.90;;;;;;5044774;28;20208;-77
2023/03/01 04:56:28;;;;;;;26.43;11.67;;;-1.90;99.90;;;;;;5047096;28;20288;-77
2023/03/01 04:58:55;;;;;;;26.20;10.90;;;-1.90;99.90;;;;;;5043549;28;20237;-77
2023/03/01 05:01:22;;;;;;;23.60;10.87;;;-1.90;99.90;;;;;;5030123;28;20236;-78
2023/03/01 05:03:51;;;;;;;21.87;10.77;;;-1.90;99.90;;;;;;5049060;28;20209;-78
2023/03/01 05:06:19;;;;;;;23.47;10.73;;;-1.90;99.90;;;;;;5031737;28;20213;-77
2023/03/01 05:08:48;;;;;;;22.37;10.20;;;-1.90;99.90;;;;;;5044805;28;20220;-78
2023/03/01 05:11:15;;;;;;;24.83;11.03;;;-1.90;99.90;;;;;;5045980;28;20292;-77
2023/03/01 05:13:43;;;;;;;23.23;11.17;;;-1.80;99.90;;;;;;5056061;28;20205;-78
2023/03/01 05:16:11;;;;;;;23.63;10.30;;;-1.80;99.90;;;;;;5039201;28;20340;-78
2023/03/01 05:18:39;;;;;;;19.03;9.90;;;-1.80;99.90;;;;;;5021722;28;20225;-78
2023/03/01 05:21:09;;;;;;;23.63;11.10;;;-1.80;99.90;;;;;;5029139;28;20237;-78
2023/03/01 05:23:36;;;;;;;19.63;10.53;;;-1.80;99.90;;;;;;5048140;28;20694;-78
2023/03/01 05:26:06;;;;;;;21.43;10.40;;;-1.80;99.90;;;;;;5047302;28;20209;-78
2023/03/01 05:28:34;;;;;;;21.30;9.37;;;-1.80;99.90;;;;;;5047399;28;20586;-79
2023/03/01 05:31:01;;;;;;;23.43;11.77;;;-1.80;99.90;;;;;;5046755;28;20278;-78
2023/03/01 05:33:28;;;;;;;22.23;10.33;;;-1.80;99.90;;;;;;5029470;28;20599;-78
2023/03/01 05:35:55;;;;;;;22.57;11.37;;;-1.70;99.90;;;;;;5029746;28;20217;-78
2023/03/01 05:38:23;;;;;;;24.67;10.83;;;-1.80;99.90;;;;;;5029366;28;20247;-78
2023/03/01 05:43:44;;;;;;;22.43;10.37;;;-1.80;99.90;;;;;;4967020;28;20210;-78
2023/03/01 05:46:13;;;;;;;21.87;10.20;;;-1.80;99.90;;;;;;4967092;28;20204;-78
2023/03/01 05:48:39;;;;;;;23.03;10.73;;;-1.80;99.90;;;;;;4968235;28;20692;-79
2023/03/01 05:51:07;;;;;;;24.00;12.20;;;-1.80;99.90;;;;;;4978741;28;20239;-78
2023/03/01 05:53:33;;;;;;;17.50;9.47;;;-1.90;99.90;;;;;;4987737;28;20743;-78
2023/03/01 05:56:00;;;;;;;24.17;10.50;;;-1.90;99.90;;;;;;4977825;28;20211;-78
2023/03/01 05:58:27;;;;;;;24.70;10.63;;;-1.90;99.90;;;;;;4992057;28;20235;-77
2023/03/01 06:00:56;;;;;;;27.67;11.37;;;-1.90;99.90;;;;;;4994079;28;20815;-77
2023/03/01 06:03:22;;;;;;;24.47;11.10;;;-1.90;99.90;;;;;;4988462;28;20215;-78
2023/03/01 06:05:49;;;;;;;22.07;9.87;;;-1.90;99.90;;;;;;4986078;28;20214;-79
2023/03/01 06:08:16;;;;;;;23.33;9.23;;;-2.00;99.90;;;;;;4987462;28;20212;-79
2023/03/01 06:10:43;;;;;;;26.10;12.07;;;-1.90;99.90;;;;;;4985530;28;20235;-78
2023/03/01 06:13:10;;;;;;;26.20;11.70;;;-1.90;99.90;;;;;;4986448;28;20293;-78
2023/03/01 06:15:37;;;;;;;20.43;9.40;;;-1.90;99.90;;;;;;4987267;28;20220;-77
2023/03/01 06:18:06;;;;;;;22.27;9.80;;;-1.90;99.90;;;;;;4984949;28;20229;-79
2023/03/01 06:20:32;;;;;;;21.93;10.17;;;-1.90;99.90;;;;;;4986791;28;20246;-79
2023/03/01 06:22:59;;;;;;;20.63;9.57;;;-1.90;99.90;;;;;;4992500;28;20199;-78
2023/03/01 06:25:27;;;;;;;24.00;10.67;;;-1.90;99.90;;;;;;4988066;28;20269;-79
2023/03/01 06:27:54;;;;;;;23.03;10.40;;;-1.90;99.90;;;;;;4963823;28;20219;-78
2023/03/01 06:33:03;;;;;;;21.63;9.70;;;-1.80;99.90;;;;;;5235434;22;20235;-79
2023/03/01 06:35:32;;;;;;;25.53;11.47;;;-1.80;99.90;;;;;;5051619;28;20649;-79
2023/03/01 06:38:00;;;;;;;23.57;10.63;;;-1.80;99.90;;;;;;5066265;28;20684;-79
2023/03/01 06:40:27;;;;;;;24.80;10.83;;;-1.80;99.90;;;;;;5061600;28;20229;-80
2023/03/01 06:42:54;;;;;;;22.47;10.60;;;-1.80;99.90;;;;;;5038086;28;20210;-80
2023/03/01 06:45:22;;;;;;;23.07;10.80;;;-1.70;99.90;;;;;;5030368;28;20209;-80
2023/03/01 06:47:50;;;;;;;28.50;11.43;;;-1.70;99.90;;;;;;5052541;28;20239;-80
2023/03/01 06:50:17;;;;;;;25.40;11.57;;;-0.90;99.90;;;;;;5051179;28;20229;-80
2023/03/01 06:52:46;;;;;;;23.70;11.97;;;-1.00;99.90;;;;;;5032150;28;20215;-80
2023/03/01 06:55:14;;;;;;;22.83;11.23;;;-0.90;99.90;;;;;;5032282;28;20944;-80
2023/03/01 06:57:41;;;;;;;23.13;11.27;;;-0.30;99.90;;;;;;5046853;28;20205;-79
2023/03/01 07:00:09;;;;;;;23.10;10.50;;;0.60;99.90;;;;;;5047265;28;20221;-79
2023/03/01 07:02:36;;;;;;;21.00;10.37;;;0.70;99.90;;;;;;5049158;28;20217;-80
2023/03/01 07:05:03;;;;;;;23.97;11.03;;;1.00;99.90;;;;;;5051120;28;20197;-80
2023/03/01 07:07:30;;;;;;;18.57;9.60;;;1.30;99.90;;;;;;5054552;28;20206;-80
2023/03/01 07:09:59;;;;;;;22.60;10.30;;;2.70;99.90;;;;;;5055289;28;20209;-79
2023/03/01 07:12:26;;;;;;;20.93;9.53;;;1.70;99.90;;;;;;5047582;28;20252;-78
2023/03/01 07:14:52;;;;;;;21.20;8.83;;;2.00;99.90;;;;;;5051152;28;20209;-79
2023/03/01 07:17:19;;;;;;;19.63;8.67;;;2.40;99.90;;;;;;5049188;28;20663;-78
2023/03/01 07:19:46;;;;;;;15.63;8.73;;;3.00;99.90;;;;;;5048065;28;20231;-79
2023/03/01 07:22:13;;;;;;;15.90;9.07;;;3.60;99.90;;;;;;5054472;28;20238;-79
2023/03/01 07:24:41;;;;;;;16.00;7.50;;;5.60;99.90;;;;;;5056029;28;20197;-79
2023/03/01 07:27:10;;;;;;;16.93;8.07;;;4.50;99.90;;;;;;5056092;28;20217;-78
2023/03/01 07:29:37;;;;;;;15.83;8.30;;;5.20;99.90;;;;;;5055522;28;20255;-78
2023/03/01 07:32:04;;;;;;;15.20;8.30;;;5.50;99.90;;;;;;5566767;22;20263;-78
2023/03/01 07:34:31;;;;;;;14.27;8.10;;;5.70;99.90;;;;;;5070434;28;20199;-77
2023/03/01 07:36:58;;;;;;;15.07;7.90;;;6.40;99.90;;;;;;5071291;28;20205;-78
2023/03/01 07:39:25;;;;;;;15.17;7.77;;;6.70;99.90;;;;;;5048422;28;20259;-78
2023/03/01 07:41:52;;;;;;;14.53;7.90;;;6.80;99.90;;;;;;5045700;28;20234;-78
2023/03/01 07:44:23;;;;;;;31.53;8.80;;;6.80;99.90;;;;;;5047920;23;20288;-75
2023/03/01 07:46:52;;;;;;;10.57;6.53;;;6.80;99.90;;;;;;5071475;28;20231;-75
2023/03/01 07:49:19;;;;;;;11.97;7.50;;;7.00;99.90;;;;;;5048683;28;20219;-76
2023/03/01 07:51:46;;;;;;;13.07;7.27;;;7.20;99.90;;;;;;5056603;28;20213;-75
2023/03/01 07:54:12;;;;;;;10.43;6.57;;;7.70;99.90;;;;;;5031985;28;20209;-74
2023/03/01 07:56:40;;;;;;;10.63;6.23;;;7.70;99.90;;;;;;5031837;28;20214;-75
2023/03/01 07:59:07;;;;;;;12.53;7.77;;;8.30;99.90;;;;;;5027267;28;20214;-74
2023/03/01 08:01:35;;;;;;;9.80;6.37;;;7.40;99.90;;;;;;5027581;28;20218;-73
2023/03/01 08:04:04;;;;;;;12.73;7.23;;;7.40;99.90;;;;;;5013695;28;20231;-74
2023/03/01 08:06:31;;;;;;;12.13;7.07;;;7.20;99.90;;;;;;5029383;28;20230;-73
2023/03/01 08:08:58;;;;;;;12.53;7.30;;;7.10;99.90;;;;;;5029715;28;20206;-74
2023/03/01 08:11:25;;;;;;;11.17;7.13;;;7.00;99.90;;;;;;5026320;28;20259;-74
2023/03/01 08:13:51;;;;;;;10.70;6.93;;;7.00;99.90;;;;;;5034026;28;20829;-75
2023/03/01 08:16:18;;;;;;;9.80;5.73;;;6.90;99.90;;;;;;5035043;28;20222;-75
2023/03/01 08:18:47;;;;;;;11.07;6.80;;;6.70;99.90;;;;;;5030902;28;20264;-75
2023/03/01 08:21:16;;;;;;;11.23;6.97;;;6.50;99.90;;;;;;5018375;28;20216;-76
2023/03/01 08:23:44;;;;;;;11.67;5.67;;;6.50;99.90;;;;;;5026306;28;20606;-75
2023/03/01 08:26:13;;;;;;;9.57;4.77;;;6.20;99.90;;;;;;5030308;28;20753;-75
2023/03/01 08:28:40;;;;;;;9.07;5.87;;;6.00;99.90;;;;;;5031230;28;20218;-74
2023/03/01 08:31:16;;;;;;;10.93;6.77;;;6.10;99.90;;;;;;5026287;28;20210;-74
2023/03/01 08:33:43;;;;;;;11.07;6.90;;;6.10;99.90;;;;;;5031862;28;20256;-74
2023/03/01 08:36:11;;;;;;;8.17;5.20;;;6.20;99.90;;;;;;5005832;28;20234;-75
2023/03/01 08:38:38;;;;;;;8.60;5.30;;;6.40;99.90;;;;;;5030507;28;20217;-74
2023/03/01 08:41:05;;;;;;;13.67;6.87;;;6.40;99.90;;;;;;5029692;28;20214;-75
2023/03/01 08:43:32;;;;;;;11.40;6.63;;;6.50;99.90;;;;;;5030356;28;20547;-75
2023/03/01 08:45:59;;;;;;;12.07;7.80;;;6.40;99.90;;;;;;5030781;28;20234;-77
2023/03/01 08:48:28;;;;;;;12.00;6.67;;;6.50;99.90;;;;;;5030094;28;20210;-76
2023/03/01 08:50:55;;;;;;;7.90;4.47;;;6.60;99.90;;;;;;5031180;28;20225;-76
2023/03/01 08:53:23;;;;;;;12.13;6.77;;;6.50;99.90;;;;;;5044415;28;20197;-77
2023/03/01 08:55:50;;;;;;;10.63;6.50;;;6.50;99.90;;;;;;5042099;28;20254;-76
2023/03/01 08:58:17;;;;;;;9.67;5.87;;;6.70;99.90;;;;;;5040075;28;20210;-75
2023/03/01 09:00:44;;;;;;;9.70;6.73;;;6.70;99.90;;;;;;5038978;28;20241;-75
2023/03/01 09:03:11;;;;;;;11.73;6.63;;;6.60;99.90;;;;;;5043092;28;20665;-76
2023/03/01 09:05:38;;;;;;;13.60;7.10;;;6.60;99.90;;;;;;5030405;28;20230;-77
2023/03/01 09:08:05;;;;;;;9.80;6.50;;;6.60;99.90;;;;;;5026150;28;20206;-77
2023/03/01 09:10:33;;;;;;;10.90;6.07;;;6.60;99.90;;;;;;5022213;28;20235;-76
2023/03/01 09:13:00;;;;;;;11.63;6.73;;;6.40;99.90;;;;;;5025218;28;20202;-76
2023/03/01 09:15:27;;;;;;;8.30;5.43;;;6.50;99.90;;;;;;5029765;28;20226;-77
2023/03/01 09:17:54;;;;;;;11.73;6.20;;;6.50;99.90;;;;;;5029269;28;20256;-77
2023/03/01 09:20:21;;;;;;;10.80;4.60;;;6.40;99.90;;;;;;5027875;28;20876;-76
2023/03/01 09:22:48;;;;;;;9.70;5.63;;;6.10;99.90;;;;;;5028672;28;20224;-77
2023/03/01 09:25:15;;;;;;;9.23;5.00;;;5.70;99.90;;;;;;5035837;28;20233;-77
2023/03/01 09:27:43;;;;;;;8.73;4.97;;;5.60;99.90;;;;;;5029525;28;20686;-77
2023/03/01 09:30:11;;;;;;;14.10;6.90;;;5.30;99.90;;;;;;5025004;28;20220;-77
2023/03/01 09:32:42;;;;;;;12.47;6.47;;;5.10;99.90;;;;;;5022130;28;20215;-77
2023/03/01 09:35:09;;;;;;;14.03;7.50;;;4.90;99.90;;;;;;5024867;28;20303;-75
2023/03/01 09:37:37;;;;;;;13.73;7.13;;;4.90;99.90;;;;;;5030013;28;20271;-75
2023/03/01 09:40:07;;;;;;;12.30;6.37;;;4.80;99.90;;;;;;5029426;28;20709;-75
2023/03/01 09:42:36;;;;;;;13.37;7.30;;;4.70;99.90;;;;;;5032015;28;20190;-76
2023/03/01 09:45:06;;;;;;;10.27;5.97;;;4.70;99.90;;;;;;5048929;28;20346;-75
2023/03/01 09:47:36;;;;;;;13.03;7.33;;;4.70;99.90;;;;;;5034878;28;20582;-77
2023/03/01 09:50:10;;;;;;;10.13;5.63;;;4.70;99.90;;;;;;5030269;28;20204;-77
2023/03/01 09:52:41;;;;;;;10.43;5.53;;;4.80;99.90;;;;;;5055911;28;20212;-75
2023/03/01 09:55:13;;;;;;;10.90;5.33;;;4.80;99.90;;;;;;5050445;28;20245;-75
2023/03/01 09:57:46;;;;;;;10.77;5.60;;;4.80;99.90;;;;;;5059671;28;20207;-75
2023/03/01 10:00:25;;;;;;;13.80;6.37;;;4.80;99.90;;;;;;5051484;28;20212;-75
2023/03/01 10:03:00;;;;;;;9.23;5.53;;;4.90;99.90;;;;;;5037583;28;20210;-76
2023/03/01 10:05:37;;;;;;;12.37;6.70;;;5.10;99.90;;;;;;5028863;28;20235;-75
2023/03/01 10:08:30;;;;;;;12.50;6.77;;;5.20;99.90;;;;;;5027658;28;20207;-74
2023/03/01 10:10:58;;;;;;;12.27;6.33;;;5.20;99.90;;;;;;5025069;28;20206;-76
2023/03/01 10:13:30;;;;;;;8.57;5.03;;;5.30;99.90;;;;;;5028834;28;20204;-76
2023/03/01 10:16:06;;;;;;;12.53;7.50;;;5.30;99.90;;;;;;5028084;28;20236;-77
2023/03/01 10:18:36;;;;;;;16.43;6.17;;;5.30;99.90;;;;;;5028426;28;20220;-77
2023/03/01 10:21:10;;;;;;;11.27;6.67;;;5.30;99.90;;;;;;5028564;28;20586;-77
2023/03/01 10:23:38;;;;;;;11.90;5.77;;;5.40;99.90;;;;;;5028127;28;20270;-77
2023/03/01 10:26:18;;;;;;;13.07;5.57;;;5.50;99.90;;;;;;5027877;28;20231;-77
2023/03/01 10:28:55;;;;;;;12.60;6.90;;;5.60;99.90;;;;;;5024212;28;20220;-77
2023/03/01 10:31:27;;;;;;;13.67;7.33;;;5.70;99.90;;;;;;5019498;28;20208;-77
2023/03/01 10:33:56;;;;;;;12.10;6.93;;;5.90;99.90;;;;;;5018830;28;20272;-77
2023/03/01 10:36:24;;;;;;;11.07;6.03;;;6.00;99.90;;;;;;5028412;28;20229;-78
2023/03/01 10:38:54;;;;;;;9.47;5.13;;;6.10;99.90;;;;;;5028397;28;20230;-76
2023/03/01 10:41:23;;;;;;;9.60;5.00;;;6.20;99.90;;;;;;5032268;28;20225;-76
2023/03/01 10:43:53;;;;;;;14.47;7.17;;;6.20;99.90;;;;;;5040176;28;20206;-76
2023/03/01 10:46:30;;;;;;;10.10;5.10;;;6.30;99.90;;;;;;5022303;28;20276;-76
2023/03/01 10:49:08;;;;;;;11.30;5.50;;;6.30;99.90;;;;;;5040778;28;20273;-75
2023/03/01 10:51:35;;;;;;;12.43;6.80;;;6.40;99.90;;;;;;5028502;28;20216;-75
2023/03/01 10:54:03;;;;;;;11.53;6.23;;;6.40;99.90;;;;;;5002670;28;20213;-76
2023/03/01 10:56:48;;;;;;;15.33;6.73;;;6.50;99.90;;;;;;5030872;28;20231;-76
2023/03/01 10:59:26;;;;;;;13.23;6.70;;;6.60;99.90;;;;;;5027907;28;20202;-76
2023/03/01 11:02:25;;;;;;;12.50;6.47;;;6.80;99.90;;;;;;5028151;28;20216;-75
2023/03/01 11:05:01;;;;;;;10.73;5.20;;;6.90;99.90;;;;;;5021485;28;20280;-74
2023/03/01 11:07:28;;;;;;;13.20;6.47;;;7.00;99.90;;;;;;5029269;28;20581;-75
2023/03/01 11:09:55;;;;;;;11.60;5.73;;;7.00;99.90;;;;;;5026101;28;20209;-75
2023/03/01 11:12:22;;;;;;;11.27;5.27;;;7.10;99.90;;;;;;5027506;28;20227;-75
2023/03/01 11:14:51;;;;;;;9.73;5.30;;;7.20;99.90;;;;;;5027476;28;20295;-75
2023/03/01 11:17:26;;;;;;;8.73;4.93;;;7.20;99.90;;;;;;5027484;28;20206;-76
2023/03/01 11:20:14;;;;;;;12.47;6.63;;;7.20;99.90;;;;;;5027544;28;20900;-75
2023/03/01 11:22:47;;;;;;;11.50;6.27;;;7.30;99.90;;;;;;5020026;28;20742;-75
2023/03/01 11:25:15;;;;;;;13.30;6.90;;;7.40;99.90;;;;;;5027578;28;20745;-75
2023/03/01 11:27:46;;;;;;;8.47;4.80;;;7.50;99.90;;;;;;5027806;28;20210;-75
2023/03/01 11:30:21;;;;;;;11.13;6.10;;;7.70;99.90;;;;;;5024631;28;20198;-75
2023/03/01 11:32:55;;;;;;;12.17;5.83;;;7.70;99.90;;;;;;5024195;28;20217;-75
2023/03/01 11:35:26;;;;;;;9.93;6.27;;;7.70;99.90;;;;;;5025053;28;20237;-76
2023/03/01 11:38:04;;;;;;;10.87;4.93;;;7.90;99.90;;;;;;5026916;28;20221;-76
2023/03/01 11:40:34;;;;;;;8.20;5.37;;;8.00;99.90;;;;;;5008808;28;20252;-75
2023/03/01 11:43:10;;;;;;;11.37;5.97;;;7.90;99.90;;;;;;5028091;28;20209;-76
2023/03/01 11:45:52;;;;;;;8.60;4.80;;;8.30;99.90;;;;;;5056816;28;20221;-74
2023/03/01 11:48:43;;;;;;;7.83;4.10;;;8.40;99.90;;;;;;5057828;28;20202;-75
2023/03/01 11:51:16;;;;;;;11.10;5.60;;;8.40;99.90;;;;;;5033427;28;20198;-75
2023/03/01 11:54:03;;;;;;;10.97;5.67;;;8.50;99.90;;;;;;5022413;28;20202;-76
2023/03/01 11:56:35;;;;;;;8.90;4.83;;;8.60;99.90;;;;;;5027206;28;21051;-76
2023/03/01 11:59:34;;;;;;;11.57;6.00;;;8.60;99.90;;;;;;5026751;28;20218;-76
2023/03/01 12:02:21;;;;;;;8.70;4.57;;;8.50;99.90;;;;;;5024702;28;20615;-76
2023/03/01 12:05:45;;;;;;;8.30;4.87;;;8.60;99.90;;;;;;5022259;28;20886;-76
2023/03/01 12:08:18;;;;;;;9.43;5.63;;;8.70;99.90;;;;;;5024162;28;20209;-76
2023/03/01 12:10:52;;;;;;;8.87;4.80;;;8.70;99.90;;;;;;5040241;28;20213;-75
2023/03/01 12:13:39;;;;;;;7.67;4.77;;;8.90;99.90;;;;;;5012768;28;20667;-75
2023/03/01 12:16:25;;;;;;;8.67;5.17;;;9.00;99.90;;;;;;5410144;23;20243;-81
2023/03/01 12:19:09;;;;;;;8.73;5.13;;;9.10;99.90;;;;;;4998800;28;20732;-79
2023/03/01 12:21:51;;;;;;;7.20;4.57;;;9.00;99.90;;;;;;4981262;28;20238;-81
2023/03/01 12:24:43;;;;;;;7.10;5.10;;;9.00;99.90;;;;;;4999789;28;20187;-80
2023/03/01 12:27:37;;;;;;;8.67;4.90;;;9.00;99.90;;;;;;4983404;28;20203;-81
2023/03/01 12:30:17;;;;;;;11.27;4.83;;;9.20;99.90;;;;;;5001014;28;20203;-81
2023/03/01 12:32:56;;;;;;;7.67;4.47;;;9.10;99.90;;;;;;4983104;28;20606;-82
2023/03/01 12:35:48;;;;;;;8.00;4.60;;;9.20;99.90;;;;;;4982779;28;20233;-80
2023/03/01 12:38:30;;;;;;;9.37;4.40;;;9.30;99.90;;;;;;5001208;28;20677;-84
2023/03/01 12:41:24;;;;;;;8.30;5.17;;;9.10;99.90;;;;;;4984512;28;20231;-88
2023/03/01 12:44:04;;;;;;;7.23;4.40;;;9.20;99.90;;;;;;4995760;28;20203;-85
2023/03/01 12:46:46;;;;;;;8.50;4.27;;;9.10;99.90;;;;;;4998387;28;20250;-83
2023/03/01 12:49:17;;;;;;;11.80;4.30;;;9.10;99.90;;;;;;5001619;28;20272;-86
2023/03/01 12:51:52;;;;;;;9.10;5.13;;;9.10;99.90;;;;;;4985178;28;20501;-85
2023/03/01 12:54:27;;;;;;;13.47;5.50;;;9.10;99.90;;;;;;5001558;28;20202;-85
2023/03/01 12:56:57;;;;;;;10.43;5.37;;;9.10;99.90;;;;;;5001550;28;20851;-83
2023/03/01 12:59:32;;;;;;;13.53;5.27;;;9.10;99.90;;;;;;4992183;28;20284;-80
2023/03/01 13:02:14;;;;;;;8.17;4.90;;;9.10;99.90;;;;;;4982140;28;20231;-80
2023/03/01 13:04:54;;;;;;;7.67;4.80;;;9.10;99.90;;;;;;4980867;28;20228;-83
2023/03/01 13:07:31;;;;;;;8.33;5.43;;;9.20;99.90;;;;;;4983699;28;20220;-82
2023/03/01 13:10:15;;;;;;;9.17;4.63;;;9.20;99.90;;;;;;4975424;28;20219;-84
2023/03/01 13:12:51;;;;;;;10.17;5.60;;;9.20;99.90;;;;;;4984298;28;20245;-85